Time;durP1;ratioP1;P1;durP2;ratioP2;P2;SDS_P1;SDS_P2;PMS_P1;PMS_P2;Temp;Humidity;BMP_temperature;BMP_pressure;BME280_temperature;BME280_humidity;BME280_pressure;Samples;Min_cycle;Max_cycle;Signal;HPM_P1;HPM_P2
2021/10/14 00:00:37;;;;;;;14.95;4.68;;;;;;;-141.50;100.00;63355.56;4934820;29;20508;-81
2021/10/14 00:03:08;;;;;;;11.32;4.75;;;;;;;-141.50;100.00;63355.56;4919334;29;20480;-82
2021/10/14 00:05:35;;;;;;;14.90;5.63;;;;;;;-141.50;100.00;63355.56;4906647;29;20047;-81
2021/10/14 00:08:03;;;;;;;14.85;4.97;;;;;;;-141.50;100.00;63355.56;4922313;29;20056;-83
2021/10/14 00:10:30;;;;;;;11.88;5.45;;;;;;;-141.50;100.00;63355.56;4932840;29;20095;-82
2021/10/14 00:12:57;;;;;;;13.27;5.05;;;;;;;-141.50;100.00;63355.56;4936107;29;20056;-82
2021/10/14 00:15:26;;;;;;;15.50;5.10;;;;;;;-141.50;100.00;63355.56;4916491;29;20161;-80
2021/10/14 00:17:53;;;;;;;11.50;4.97;;;;;;;-141.50;100.00;63355.56;4902061;29;20604;-81
2021/10/14 00:20:20;;;;;;;14.30;5.30;;;;;;;-141.50;100.00;63355.56;4901578;29;20575;-80
2021/10/14 00:22:46;;;;;;;11.00;5.65;;;;;;;-141.50;100.00;63355.56;4933681;29;20047;-81
2021/10/14 00:25:13;;;;;;;12.48;5.15;;;;;;;-141.50;100.00;63355.56;4920124;29;20108;-80
2021/10/14 00:27:40;;;;;;;12.48;5.93;;;;;;;-141.50;100.00;63355.56;4919667;29;20481;-81
2021/10/14 00:30:08;;;;;;;17.58;5.93;;;;;;;-141.50;100.00;63355.56;4934504;29;20166;-81
2021/10/14 00:32:34;;;;;;;13.80;5.45;;;;;;;-141.50;100.00;63355.56;4935642;29;20051;-81
2021/10/14 00:35:01;;;;;;;12.43;5.47;;;;;;;-141.50;100.00;63355.56;4919719;29;20090;-81
2021/10/14 00:37:28;;;;;;;19.85;6.20;;;;;;;-141.50;100.00;63355.56;4920769;29;20052;-80
2021/10/14 00:39:54;;;;;;;14.45;5.95;;;;;;;-141.50;100.00;63355.56;4937769;29;20047;-80
2021/10/14 00:42:21;;;;;;;13.63;5.75;;;;;;;-141.50;100.00;63355.56;4921517;29;20055;-81
2021/10/14 00:44:52;;;;;;;20.17;7.18;;;;;;;-141.50;100.00;63355.56;4922052;29;20055;-80
2021/10/14 00:47:20;;;;;;;17.33;6.45;;;;;;;-141.50;100.00;63355.56;4927178;29;20119;-80
2021/10/14 00:49:47;;;;;;;17.92;7.03;;;;;;;-141.50;100.00;63355.56;4910124;29;20050;-80
2021/10/14 00:52:15;;;;;;;16.17;7.03;;;;;;;-141.50;100.00;63355.56;4909724;29;20063;-79
2021/10/14 00:54:45;;;;;;;17.30;8.15;;;;;;;-141.50;100.00;63355.56;4910513;29;20039;-79
2021/10/14 00:57:12;;;;;;;19.58;8.77;;;;;;;-141.50;100.00;63355.56;4926063;29;20043;-79
2021/10/14 00:59:41;;;;;;;20.42;8.05;;;;;;;-141.50;100.00;63355.56;4911909;29;20078;-79
2021/10/14 01:02:07;;;;;;;23.75;8.18;;;;;;;-141.50;100.00;63355.56;4906144;29;20111;-79
2021/10/14 01:04:35;;;;;;;22.83;8.63;;;;;;;-141.50;100.00;63355.56;4915435;29;20048;-79
2021/10/14 01:07:02;;;;;;;20.73;8.55;;;;;;;-141.50;100.00;63355.56;4918715;29;20390;-79
2021/10/14 01:09:29;;;;;;;19.88;8.70;;;;;;;-141.50;100.00;63355.56;4919363;29;20075;-81
2021/10/14 01:12:03;;;;;;;23.10;8.98;;;;;;;-141.50;100.00;63355.56;4920682;29;20202;-79
2021/10/14 01:14:31;;;;;;;19.70;9.00;;;;;;;-141.50;100.00;63355.56;4920535;29;20142;-80
2021/10/14 01:16:59;;;;;;;19.40;9.30;;;;;;;-141.50;100.00;63355.56;4920197;29;20056;-79
2021/10/14 01:19:26;;;;;;;21.50;9.18;;;;;;;-141.50;100.00;63355.56;4920042;29;20055;-81
2021/10/14 01:21:53;;;;;;;24.67;9.98;;;;;;;-141.50;100.00;63355.56;4904986;29;20059;-80
2021/10/14 01:24:20;;;;;;;21.48;9.18;;;;;;;-141.50;100.00;63355.56;4905158;29;20055;-80
2021/10/14 01:26:47;;;;;;;23.10;10.45;;;;;;;-141.50;100.00;63355.56;4922176;29;20040;-80
2021/10/14 01:29:14;;;;;;;24.58;10.65;;;;;;;-141.50;100.00;63355.56;4903663;29;20052;-79
2021/10/14 01:31:41;;;;;;;25.20;10.98;;;;;;;-141.50;100.00;63355.56;4905338;29;20136;-80
2021/10/14 01:34:08;;;;;;;25.75;10.93;;;;;;;-141.50;100.00;63355.56;4904850;29;20516;-80
2021/10/14 01:36:35;;;;;;;21.35;10.57;;;;;;;-141.50;100.00;63355.56;4920871;29;20501;-80
2021/10/14 01:39:03;;;;;;;24.67;11.05;;;;;;;-141.50;100.00;63355.56;4905389;29;20075;-79
2021/10/14 01:41:30;;;;;;;23.83;11.20;;;;;;;-141.50;100.00;63355.56;4921143;29;20075;-79
2021/10/14 01:43:58;;;;;;;25.13;11.20;;;;;;;-141.50;100.00;63355.56;4905959;29;20571;-80
2021/10/14 01:46:25;;;;;;;29.05;12.15;;;;;;;-141.50;100.00;63355.56;4904180;29;20039;-81
2021/10/14 01:48:54;;;;;;;27.80;12.85;;;;;;;-141.50;100.00;63355.56;4921810;29;20115;-80
2021/10/14 01:51:21;;;;;;;27.15;11.77;;;;;;;-141.50;100.00;63355.56;4905767;29;20039;-81
2021/10/14 01:53:48;;;;;;;24.33;11.52;;;;;;;-141.50;100.00;63355.56;4906218;29;20051;-80
2021/10/14 01:56:15;;;;;;;25.30;11.68;;;;;;;-141.50;100.00;63355.56;4906190;29;20055;-81
2021/10/14 01:58:42;;;;;;;23.80;12.23;;;;;;;-141.50;100.00;63355.56;4905490;29;20099;-81
2021/10/14 02:01:09;;;;;;;26.02;12.30;;;;;;;-141.50;100.00;63355.56;4904612;29;20055;-80
2021/10/14 02:03:35;;;;;;;29.52;12.45;;;;;;;-141.50;100.00;63355.56;4904905;29;20066;-80
2021/10/14 02:06:02;;;;;;;25.25;12.73;;;;;;;-141.50;100.00;63355.56;4904795;29;20124;-81
2021/10/14 02:08:29;;;;;;;26.23;12.73;;;;;;;-141.50;100.00;63355.56;4904655;29;20111;-81
2021/10/14 02:10:56;;;;;;;30.75;12.75;;;;;;;-141.50;100.00;63355.56;4907349;29;20236;-80
2021/10/14 02:13:23;;;;;;;25.10;12.57;;;;;;;-141.50;100.00;63355.56;4905242;29;20288;-81
2021/10/14 02:15:49;;;;;;;25.85;12.68;;;;;;;-141.50;100.00;63355.56;4905980;29;20531;-80
2021/10/14 02:18:16;;;;;;;26.90;12.90;;;;;;;-141.50;100.00;63355.56;4905594;29;20051;-79
2021/10/14 02:20:43;;;;;;;36.08;14.13;;;;;;;-141.50;100.00;63355.56;4922076;29;20079;-81
2021/10/14 02:23:09;;;;;;;30.02;13.13;;;;;;;-141.50;100.00;63355.56;4904426;29;20143;-81
2021/10/14 02:25:37;;;;;;;28.10;13.25;;;;;;;-141.50;100.00;63355.56;4904828;29;20056;-80
2021/10/14 02:28:03;;;;;;;31.40;13.55;;;;;;;-141.50;100.00;63355.56;4904477;29;20249;-80
2021/10/14 02:30:30;;;;;;;29.48;13.65;;;;;;;-141.50;100.00;63355.56;4903704;29;20508;-80
2021/10/14 02:32:57;;;;;;;28.35;14.40;;;;;;;-141.50;100.00;63355.56;4904101;29;20283;-80
2021/10/14 02:35:26;;;;;;;38.58;15.13;;;;;;;-141.50;100.00;63355.56;4904111;29;20107;-80
2021/10/14 02:37:53;;;;;;;30.55;12.85;;;;;;;-141.50;100.00;63355.56;4905359;29;20141;-80
2021/10/14 02:40:19;;;;;;;23.70;12.55;;;;;;;-141.50;100.00;63355.56;4905000;29;20520;-80
2021/10/14 02:42:46;;;;;;;25.20;13.68;;;;;;;-141.50;100.00;63355.56;4905501;29;20075;-80
2021/10/14 02:45:13;;;;;;;20.83;12.73;;;;;;;-141.50;100.00;63355.56;4906824;29;20488;-80
2021/10/14 02:47:40;;;;;;;27.58;13.98;;;;;;;-141.50;100.00;63355.56;4920560;29;20043;-80
2021/10/14 02:50:07;;;;;;;27.17;13.45;;;;;;;-141.50;100.00;63355.56;4922974;29;20555;-80
2021/10/14 02:52:34;;;;;;;27.98;13.02;;;;;;;-141.50;100.00;63355.56;4922758;29;20057;-79
2021/10/14 02:55:00;;;;;;;24.83;12.45;;;;;;;-141.50;100.00;63355.56;4922350;29;20055;-79
2021/10/14 02:57:27;;;;;;;25.63;12.75;;;;;;;-141.50;100.00;63355.56;4939592;29;20042;-80
2021/10/14 02:59:54;;;;;;;22.50;12.70;;;;;;;-141.50;100.00;63355.56;4923401;29;20083;-79
2021/10/14 03:02:20;;;;;;;25.05;13.50;;;;;;;-141.50;100.00;63355.56;4923803;29;20142;-80
2021/10/14 03:04:47;;;;;;;25.08;13.35;;;;;;;-141.50;100.00;63355.56;4923066;29;20055;-79
2021/10/14 03:07:17;;;;;;;29.67;14.32;;;;;;;-141.50;100.00;63355.56;4923360;29;20047;-80
2021/10/14 03:09:44;;;;;;;35.10;13.93;;;;;;;-141.50;100.00;63355.56;4923676;29;20051;-78
2021/10/14 03:12:10;;;;;;;27.15;13.52;;;;;;;-141.50;100.00;63355.56;4923271;29;20047;-80
2021/10/14 03:14:37;;;;;;;27.52;12.43;;;;;;;-141.50;100.00;63355.56;4925103;29;20075;-80
2021/10/14 03:17:04;;;;;;;27.02;12.95;;;;;;;-141.50;100.00;63355.56;4956886;28;20047;-79
2021/10/14 03:19:30;;;;;;;26.48;13.23;;;;;;;-141.50;100.00;63355.56;4926598;29;20073;-79
2021/10/14 03:21:57;;;;;;;22.17;11.98;;;;;;;-141.50;100.00;63355.56;4920734;29;20059;-79
2021/10/14 03:24:24;;;;;;;20.40;11.85;;;;;;;-141.50;100.00;63355.56;4922434;29;20057;-80
2021/10/14 03:26:51;;;;;;;20.88;11.13;;;;;;;-141.50;100.00;63355.56;4922711;29;20138;-80
2021/10/14 03:29:17;;;;;;;21.52;11.20;;;;;;;-141.50;100.00;63355.56;4921988;29;20071;-81
2021/10/14 03:31:44;;;;;;;19.42;10.10;;;;;;;-141.50;100.00;63355.56;4916614;29;20043;-81
2021/10/14 03:34:10;;;;;;;16.67;10.40;;;;;;;-141.50;100.00;63355.56;4918003;29;20052;-80
2021/10/14 03:36:37;;;;;;;19.98;10.25;;;;;;;-141.50;100.00;63355.56;4927622;29;20138;-80
2021/10/14 03:39:04;;;;;;;17.90;10.15;;;;;;;-141.50;100.00;63355.56;4918495;29;20142;-81
2021/10/14 03:41:31;;;;;;;23.80;10.40;;;;;;;-141.50;100.00;63355.56;4919101;29;20118;-80
2021/10/14 03:43:58;;;;;;;18.40;10.93;;;;;;;-141.50;100.00;63355.56;4938621;29;20473;-80
2021/10/14 03:46:25;;;;;;;21.35;11.50;;;;;;;-141.50;100.00;63355.56;4923525;29;20146;-82
2021/10/14 03:48:51;;;;;;;22.27;11.25;;;;;;;-141.50;100.00;63355.56;4924712;29;20051;-80
2021/10/14 03:51:18;;;;;;;22.95;12.07;;;;;;;-141.50;100.00;63355.56;4929821;29;20122;-81
2021/10/14 03:53:45;;;;;;;21.33;11.38;;;;;;;-141.50;100.00;63355.56;4930613;29;20065;-81
2021/10/14 03:56:12;;;;;;;22.70;10.88;;;;;;;-141.50;100.00;63355.56;4943455;29;20047;-79
2021/10/14 03:58:39;;;;;;;18.77;10.85;;;;;;;-141.50;100.00;63355.56;4931508;29;20111;-80
2021/10/14 04:01:05;;;;;;;19.05;10.98;;;;;;;-141.50;100.00;63355.56;4936314;28;20062;-79
2021/10/14 04:03:32;;;;;;;20.73;10.20;;;;;;;-141.50;100.00;63355.56;4939989;28;20062;-79
2021/10/14 04:05:59;;;;;;;20.90;10.63;;;;;;;-141.50;100.00;63355.56;4937667;29;20039;-79
2021/10/14 04:08:26;;;;;;;18.90;9.57;;;;;;;-141.50;100.00;63355.56;4944775;28;20086;-80
2021/10/14 04:10:52;;;;;;;16.58;9.05;;;;;;;-141.50;100.00;63355.56;4956262;28;20066;-79
2021/10/14 04:13:19;;;;;;;19.23;9.07;;;;;;;-141.50;100.00;63355.56;4959579;28;20062;-79
2021/10/14 04:15:48;;;;;;;15.68;8.93;;;;;;;-141.50;100.00;63355.56;4945160;28;20066;-79
2021/10/14 04:18:19;;;;;;;17.85;8.63;;;;;;;-141.50;100.00;63355.56;4945994;28;20072;-80
2021/10/14 04:20:46;;;;;;;17.95;9.02;;;;;;;-141.50;100.00;63355.56;4943737;28;20145;-80
2021/10/14 04:23:16;;;;;;;15.23;8.45;;;;;;;-141.50;100.00;63355.56;4959721;28;20131;-79
2021/10/14 04:25:43;;;;;;;17.13;9.05;;;;;;;-141.50;100.00;63355.56;4940874;28;20101;-81
2021/10/14 04:28:10;;;;;;;18.13;9.38;;;;;;;-141.50;100.00;63355.56;4955194;28;20101;-80
2021/10/14 04:30:37;;;;;;;14.40;8.23;;;;;;;-141.50;100.00;63355.56;4954984;28;20062;-80
2021/10/14 04:33:05;;;;;;;14.55;7.38;;;;;;;-141.50;100.00;63355.56;4940753;28;20050;-81
2021/10/14 04:35:32;;;;;;;15.57;7.03;;;;;;;-141.50;100.00;63355.56;4941619;28;20059;-80
2021/10/14 04:38:00;;;;;;;10.68;5.90;;;;;;;-141.50;100.00;63355.56;4939096;28;20050;-79
2021/10/14 04:40:31;;;;;;;10.32;4.78;;;;;;;-141.50;100.00;63355.56;4939002;28;20061;-80
2021/10/14 04:42:59;;;;;;;10.63;4.95;;;;;;;-141.50;100.00;63355.56;4955473;28;20142;-80
2021/10/14 04:45:25;;;;;;;9.27;4.78;;;;;;;-141.50;100.00;63355.56;4940484;28;20050;-80
2021/10/14 04:47:52;;;;;;;10.10;5.07;;;;;;;-141.50;100.00;63355.56;4940680;28;20043;-80
2021/10/14 04:50:19;;;;;;;8.98;5.70;;;;;;;-141.50;100.00;63355.56;4940417;28;20081;-80
2021/10/14 04:52:46;;;;;;;9.70;5.63;;;;;;;-141.50;100.00;63355.56;4939782;28;20055;-79
2021/10/14 04:55:12;;;;;;;8.73;5.70;;;;;;;-141.50;100.00;63355.56;4940437;28;20085;-80
2021/10/14 04:57:39;;;;;;;9.10;5.55;;;;;;;-141.50;100.00;63355.56;4956209;28;20055;-79
2021/10/14 05:00:06;;;;;;;9.15;6.13;;;;;;;-141.50;100.00;63355.56;4939634;28;20619;-79
2021/10/14 05:02:34;;;;;;;10.00;5.90;;;;;;;-141.50;100.00;63355.56;4940538;28;20054;-80
2021/10/14 05:05:01;;;;;;;8.48;5.35;;;;;;;-141.50;100.00;63355.56;4940559;28;20083;-80
2021/10/14 05:07:30;;;;;;;9.40;5.60;;;;;;;-141.50;100.00;63355.56;4955508;28;20085;-80
2021/10/14 05:09:57;;;;;;;8.35;5.15;;;;;;;-141.50;100.00;63355.56;4940464;28;20047;-80
2021/10/14 05:12:24;;;;;;;8.45;5.35;;;;;;;-141.50;100.00;63355.56;4942764;28;20113;-81
2021/10/14 05:14:51;;;;;;;11.02;5.78;;;;;;;-141.50;100.00;63355.56;4959414;28;20051;-81
2021/10/14 05:17:17;;;;;;;11.93;5.75;;;;;;;-141.50;100.00;63355.56;4949800;28;20070;-81
2021/10/14 05:19:44;;;;;;;11.77;6.72;;;;;;;-141.50;100.00;63355.56;4942991;28;20579;-81
2021/10/14 05:22:11;;;;;;;11.07;6.88;;;;;;;-141.50;100.00;63355.56;4941821;28;20061;-81
2021/10/14 05:24:37;;;;;;;10.77;6.63;;;;;;;-141.50;100.00;63355.56;4942146;28;20079;-81
2021/10/14 05:27:04;;;;;;;11.43;6.80;;;;;;;-141.50;100.00;63355.56;4942890;28;20051;-80
2021/10/14 05:29:31;;;;;;;11.70;7.22;;;;;;;-141.50;100.00;63355.56;4941582;28;20115;-80
2021/10/14 05:31:58;;;;;;;12.10;7.57;;;;;;;-141.50;100.00;63355.56;4942932;28;20345;-81
2021/10/14 05:34:25;;;;;;;14.27;7.68;;;;;;;-141.50;100.00;63355.56;4942929;28;20074;-81
2021/10/14 05:36:52;;;;;;;13.50;8.30;;;;;;;-141.50;100.00;63355.56;4958717;28;20051;-80
2021/10/14 05:39:22;;;;;;;15.43;8.07;;;;;;;-141.50;100.00;63355.56;4942426;28;20054;-80
2021/10/14 05:41:49;;;;;;;14.15;7.95;;;;;;;-141.50;100.00;63355.56;4959417;28;20503;-80
2021/10/14 05:44:16;;;;;;;15.80;7.78;;;;;;;-141.50;100.00;63355.56;4942955;28;20113;-81
2021/10/14 05:46:42;;;;;;;13.40;8.13;;;;;;;-141.50;100.00;63355.56;4942545;28;20042;-81
2021/10/14 05:49:09;;;;;;;15.15;8.55;;;;;;;-141.50;100.00;63355.56;4942464;28;20114;-80
2021/10/14 05:51:36;;;;;;;13.52;7.68;;;;;;;-141.50;100.00;63355.56;4943105;28;20054;-82
2021/10/14 05:54:03;;;;;;;12.27;7.32;;;;;;;-141.50;100.00;63355.56;4947051;28;20141;-81
2021/10/14 05:56:30;;;;;;;12.55;7.28;;;;;;;-141.50;100.00;63355.56;4946426;28;20051;-81
2021/10/14 05:58:56;;;;;;;13.55;7.47;;;;;;;-141.50;100.00;63355.56;4979953;28;20076;-80
2021/10/14 06:01:23;;;;;;;13.05;7.70;;;;;;;-141.50;100.00;63355.56;4961639;28;20055;-82
2021/10/14 06:03:50;;;;;;;10.88;6.70;;;;;;;-141.50;100.00;63355.56;4946931;28;20085;-81
2021/10/14 06:06:17;;;;;;;12.38;6.78;;;;;;;-141.50;100.00;63355.56;4963983;28;20047;-80
2021/10/14 06:08:43;;;;;;;14.18;7.07;;;;;;;-141.50;100.00;63355.56;4948407;28;20074;-81
2021/10/14 06:11:12;;;;;;;11.63;6.90;;;;;;;-141.50;100.00;63355.56;4948647;28;20490;-80
2021/10/14 06:13:39;;;;;;;10.48;7.25;;;;;;;-141.50;100.00;63355.56;4948483;28;20466;-81
2021/10/14 06:16:06;;;;;;;10.68;7.20;;;;;;;-141.50;100.00;63355.56;4950378;28;20123;-81
2021/10/14 06:18:33;;;;;;;11.38;7.22;;;;;;;-141.50;100.00;63355.56;4962110;28;20050;-81
2021/10/14 06:21:00;;;;;;;9.98;6.93;;;;;;;-141.50;100.00;63355.56;4941611;28;20058;-81
2021/10/14 06:23:27;;;;;;;11.65;7.95;;;;;;;-141.50;100.00;63355.56;4957206;28;20050;-80
2021/10/14 06:25:55;;;;;;;13.85;7.90;;;;;;;-141.50;100.00;63355.56;4960216;28;20051;-80
2021/10/14 06:28:22;;;;;;;12.77;8.07;;;;;;;-141.50;100.00;63355.56;4942645;28;20042;-79
2021/10/14 06:30:49;;;;;;;11.75;6.95;;;;;;;-141.50;100.00;63355.56;4959603;28;20077;-79
2021/10/14 06:33:16;;;;;;;11.27;7.60;;;;;;;-141.50;100.00;63355.56;4944383;28;20051;-80
2021/10/14 06:35:43;;;;;;;15.07;7.55;;;;;;;-141.50;100.00;63355.56;4943624;28;20073;-79
2021/10/14 06:38:11;;;;;;;10.68;6.90;;;;;;;-141.50;100.00;63355.56;4943002;28;20046;-79
2021/10/14 06:40:38;;;;;;;13.30;7.45;;;;;;;-141.50;100.00;63355.56;4944563;28;20051;-79
2021/10/14 06:43:04;;;;;;;8.82;6.07;;;;;;;-141.50;100.00;63355.56;4959351;28;20042;-79
2021/10/14 06:45:31;;;;;;;10.07;5.82;;;;;;;-141.50;100.00;63355.56;4944024;28;20108;-78
2021/10/14 06:47:58;;;;;;;9.02;6.03;;;;;;;-141.50;100.00;63355.56;4958258;28;20130;-80
2021/10/14 06:50:25;;;;;;;9.75;5.50;;;;;;;-141.50;100.00;63355.56;4960538;28;20054;-80
2021/10/14 06:52:52;;;;;;;8.20;5.65;;;;;;;-141.50;100.00;63355.56;4960571;28;20058;-79
2021/10/14 06:55:18;;;;;;;12.27;6.20;;;;;;;-141.50;100.00;63355.56;4944991;28;20054;-79
2021/10/14 06:57:45;;;;;;;9.88;6.20;;;;;;;-141.50;100.00;63355.56;4944347;28;20443;-79
2021/10/14 07:00:12;;;;;;;10.48;6.38;;;;;;;-141.50;100.00;63355.56;4944206;28;20058;-80
2021/10/14 07:02:39;;;;;;;10.75;6.90;;;;;;;-141.50;100.00;63355.56;4944422;28;20047;-78
2021/10/14 07:05:06;;;;;;;8.93;6.57;;;;;;;-141.50;100.00;63355.56;4944551;28;20074;-78
2021/10/14 07:07:33;;;;;;;11.52;7.07;;;;;;;-141.50;100.00;63355.56;4959750;28;20053;-79
2021/10/14 07:10:00;;;;;;;11.25;7.47;;;;;;;-141.50;100.00;63355.56;4961279;28;20091;-80
2021/10/14 07:12:28;;;;;;;11.30;6.95;;;;;;;-141.50;100.00;63355.56;4944224;28;20062;-80
2021/10/14 07:14:55;;;;;;;12.32;6.95;;;;;;;-141.50;100.00;63355.56;4943758;28;20533;-79
2021/10/14 07:17:22;;;;;;;8.85;6.38;;;;;;;-141.50;100.00;63355.56;4958279;28;20216;-80
2021/10/14 07:19:49;;;;;;;8.65;6.63;;;;;;;-141.50;100.00;63355.56;4941607;28;20467;-79
2021/10/14 07:22:16;;;;;;;8.23;5.60;;;;;;;-141.50;100.00;63355.56;4959332;28;20145;-80
2021/10/14 07:24:43;;;;;;;9.75;6.18;;;;;;;-141.50;100.00;63355.56;4944415;28;20070;-79
2021/10/14 07:27:10;;;;;;;9.95;6.38;;;;;;;-141.50;100.00;63355.56;4944269;28;20133;-80
2021/10/14 07:29:36;;;;;;;8.70;6.10;;;;;;;-141.50;100.00;63355.56;4960473;28;20066;-80
2021/10/14 07:32:06;;;;;;;9.13;6.57;;;;;;;-141.50;100.00;63355.56;4943370;28;20075;-80
2021/10/14 07:34:34;;;;;;;9.05;5.40;;;;;;;-141.50;100.00;63355.56;4943727;28;20141;-80
2021/10/14 07:37:01;;;;;;;8.07;5.38;;;;;;;-141.50;100.00;63355.56;4941344;28;20054;-80
2021/10/14 07:39:28;;;;;;;7.65;5.18;;;;;;;-141.50;100.00;63355.56;4944922;28;20042;-81
2021/10/14 07:41:55;;;;;;;7.18;4.85;;;;;;;-141.50;100.00;63355.56;4948619;28;20061;-81
2021/10/14 07:44:22;;;;;;;6.78;4.53;;;;;;;-141.50;100.00;63355.56;4949212;28;20113;-81
2021/10/14 07:46:49;;;;;;;6.38;4.30;;;;;;;-141.50;100.00;63355.56;4951453;28;20054;-81
2021/10/14 07:49:17;;;;;;;6.28;4.57;;;;;;;-141.50;100.00;63355.56;4961585;28;20047;-80
2021/10/14 07:51:44;;;;;;;6.78;4.13;;;;;;;-141.50;100.00;63355.56;4961797;28;20123;-81
2021/10/14 07:54:11;;;;;;;5.55;3.42;;;;;;;-141.50;100.00;63355.56;4952826;28;20059;-81
2021/10/14 07:56:38;;;;;;;5.43;3.58;;;;;;;-141.50;100.00;63355.56;4947865;28;20559;-81
2021/10/14 07:59:05;;;;;;;5.05;3.65;;;;;;;-141.50;100.00;63355.56;4953844;28;20034;-81
2021/10/14 08:01:32;;;;;;;5.10;3.60;;;;;;;-141.50;100.00;63355.56;4957316;28;20105;-81
2021/10/14 08:03:58;;;;;;;5.35;4.00;;;;;;;-141.50;100.00;63355.56;4949922;28;20055;-81
2021/10/14 08:06:25;;;;;;;5.55;4.20;;;;;;;-141.50;100.00;63355.56;4948453;28;20288;-81
2021/10/14 08:08:52;;;;;;;6.75;4.05;;;;;;;-141.50;100.00;63355.56;4962870;28;20051;-80
2021/10/14 08:11:19;;;;;;;6.05;4.50;;;;;;;-141.50;100.00;63355.56;4947320;28;20190;-81
2021/10/14 08:13:46;;;;;;;6.78;3.90;;;;;;;-141.50;100.00;63355.56;4946574;28;20534;-81
2021/10/14 08:16:12;;;;;;;6.30;4.22;;;;;;;-141.50;100.00;63355.56;4945762;28;20051;-80
2021/10/14 08:18:39;;;;;;;6.75;4.30;;;;;;;-141.50;100.00;63355.56;4944987;28;20070;-80
2021/10/14 08:21:06;;;;;;;7.40;4.65;;;;;;;-141.50;100.00;63355.56;4945664;28;20043;-81
2021/10/14 08:23:33;;;;;;;6.20;4.18;;;;;;;-141.50;100.00;63355.56;4944527;28;20047;-80
2021/10/14 08:26:00;;;;;;;6.47;4.35;;;;;;;-141.50;100.00;63355.56;4944471;28;20061;-80
2021/10/14 08:28:27;;;;;;;5.45;4.03;;;;;;;-141.50;100.00;63355.56;4942833;28;20051;-80
2021/10/14 08:30:54;;;;;;;6.80;3.85;;;;;;;-141.50;100.00;63355.56;4943134;28;20075;-80
2021/10/14 08:33:22;;;;;;;4.78;3.40;;;;;;;-141.50;100.00;63355.56;4959577;28;20054;-80
2021/10/14 08:35:49;;;;;;;8.30;4.05;;;;;;;-141.50;100.00;63355.56;4942968;28;20050;-80
2021/10/14 08:38:15;;;;;;;4.30;3.40;;;;;;;-141.50;100.00;63355.56;4941749;28;20082;-81
2021/10/14 08:40:46;;;;;;;4.55;3.47;;;;;;;-141.50;100.00;63355.56;4922751;29;20083;-80
2021/10/14 08:43:16;;;;;;;4.07;2.78;;;;;;;-141.50;100.00;63355.56;4924189;29;20118;-80
2021/10/14 08:45:45;;;;;;;5.22;3.25;;;;;;;-141.50;100.00;63355.56;4925279;29;20318;-80
2021/10/14 08:48:13;;;;;;;4.18;3.35;;;;;;;-141.50;100.00;63355.56;4924227;29;20079;-81
2021/10/14 08:50:45;;;;;;;5.35;3.35;;;;;;;-141.50;100.00;63355.56;4923541;29;20047;-80
2021/10/14 08:53:12;;;;;;;4.38;3.33;;;;;;;-141.50;100.00;63355.56;4939755;29;20047;-80
2021/10/14 08:55:40;;;;;;;5.00;3.65;;;;;;;-141.50;100.00;63355.56;4926487;29;20051;-80
2021/10/14 08:58:11;;;;;;;6.15;4.00;;;;;;;-141.50;100.00;63355.56;4924975;29;20075;-80
2021/10/14 09:00:42;;;;;;;5.95;3.90;;;;;;;-141.50;100.00;63355.56;4923465;29;20058;-80
2021/10/14 09:03:30;;;;;;;7.57;4.57;;;;;;;-141.50;100.00;63355.56;4923373;29;20495;-80
2021/10/14 09:05:57;;;;;;;6.07;4.03;;;;;;;-141.50;100.00;63355.56;4924727;29;20047;-81
2021/10/14 09:08:32;;;;;;;4.70;3.67;;;;;;;-141.50;100.00;63355.56;4924606;29;20048;-80
2021/10/14 09:11:27;;;;;;;6.20;4.18;;;;;;;-141.50;100.00;63355.56;4925622;29;20055;-81
2021/10/14 09:14:08;;;;;;;5.78;3.75;;;;;;;-141.50;100.00;63355.56;4924803;29;20310;-81
2021/10/14 09:16:39;;;;;;;4.60;3.05;;;;;;;-141.50;100.00;63355.56;4926862;29;20504;-81
2021/10/14 09:19:17;;;;;;;4.68;3.00;;;;;;;-141.50;100.00;63355.56;4927940;29;20067;-80
2021/10/14 09:21:55;;;;;;;4.15;3.08;;;;;;;-141.50;100.00;63355.56;4931144;29;20050;-81
2021/10/14 09:24:31;;;;;;;5.00;3.58;;;;;;;-141.50;100.00;63355.56;4927677;29;20043;-81
2021/10/14 09:27:01;;;;;;;6.55;3.50;;;;;;;-141.50;100.00;63355.56;4923435;29;20077;-80
2021/10/14 09:29:29;;;;;;;4.15;2.70;;;;;;;-141.50;100.00;63355.56;4940296;29;20039;-81
2021/10/14 09:31:55;;;;;;;3.67;2.70;;;;;;;-141.50;100.00;63355.56;4925295;29;20401;-81
2021/10/14 09:34:25;;;;;;;4.00;3.15;;;;;;;-141.50;100.00;63355.56;4924515;29;20094;-80
2021/10/14 09:36:52;;;;;;;4.47;3.28;;;;;;;-141.50;100.00;63355.56;4924898;29;20143;-80
2021/10/14 09:39:19;;;;;;;4.57;3.53;;;;;;;-141.50;100.00;63355.56;4925205;29;20047;-81
2021/10/14 09:41:46;;;;;;;5.55;3.78;;;;;;;-141.50;100.00;63355.56;4925212;29;20178;-81
2021/10/14 09:44:49;;;;;;;4.90;3.55;;;;;;;-141.50;100.00;63355.56;4926843;29;20126;-80
2021/10/14 09:47:16;;;;;;;5.75;3.78;;;;;;;-141.50;100.00;63355.56;4940252;29;20075;-80
2021/10/14 09:49:43;;;;;;;5.05;3.75;;;;;;;-141.50;100.00;63355.56;4923447;29;20044;-81
2021/10/14 09:52:09;;;;;;;5.47;3.60;;;;;;;-141.50;100.00;63355.56;4923987;29;20089;-81
2021/10/14 09:54:36;;;;;;;4.35;3.42;;;;;;;-141.50;100.00;63355.56;4939328;29;20134;-81
2021/10/14 09:57:02;;;;;;;5.10;3.25;;;;;;;-141.50;100.00;63355.56;4925644;29;20118;-80
2021/10/14 09:59:29;;;;;;;6.10;3.38;;;;;;;-141.50;100.00;63355.56;4924904;29;20043;-80
2021/10/14 10:01:57;;;;;;;5.07;2.55;;;;;;;-141.50;100.00;63355.56;4925519;29;20157;-80
2021/10/14 10:04:25;;;;;;;4.28;2.90;;;;;;;-141.50;100.00;63355.56;4928348;29;20130;-80
2021/10/14 10:06:57;;;;;;;3.47;2.40;;;;;;;-141.50;100.00;63355.56;4927150;29;20051;-81
2021/10/14 10:09:32;;;;;;;2.88;2.30;;;;;;;-141.50;100.00;63355.56;4926691;29;20048;-81
2021/10/14 10:12:01;;;;;;;2.90;2.20;;;;;;;-141.50;100.00;63355.56;4942112;29;20054;-82
2021/10/14 10:14:29;;;;;;;2.97;2.17;;;;;;;-141.50;100.00;63355.56;4925411;29;20062;-81
2021/10/14 10:17:06;;;;;;;2.13;1.85;;;;;;;-141.50;100.00;63355.56;4925027;29;20086;-81
2021/10/14 10:19:50;;;;;;;2.35;1.60;;;;;;;-141.50;100.00;63355.56;4941546;29;20321;-80
2021/10/14 10:22:35;;;;;;;2.30;1.90;;;;;;;-141.50;100.00;63355.56;4926845;29;20566;-80
2021/10/14 10:25:23;;;;;;;1.73;1.48;;;;;;;-141.50;100.00;63355.56;4925845;29;20226;-81
2021/10/14 10:27:52;;;;;;;2.20;1.50;;;;;;;-141.50;100.00;63355.56;4926632;29;20078;-80
2021/10/14 10:30:35;;;;;;;1.60;1.10;;;;;;;-141.50;100.00;63355.56;4925599;29;20192;-81
2021/10/14 10:33:03;;;;;;;2.00;1.40;;;;;;;-141.50;100.00;63355.56;4927040;29;20071;-81
2021/10/14 10:35:42;;;;;;;2.30;1.48;;;;;;;-141.50;100.00;63355.56;4927419;29;20120;-81
2021/10/14 10:38:21;;;;;;;2.55;1.85;;;;;;;-141.50;100.00;63355.56;4927968;29;20047;-81
2021/10/14 10:40:50;;;;;;;4.95;1.80;;;;;;;-141.50;100.00;63355.56;4928081;29;20166;-81
2021/10/14 10:43:21;;;;;;;2.83;1.90;;;;;;;-141.50;100.00;63355.56;4941387;29;20305;-81
2021/10/14 10:45:52;;;;;;;4.60;2.08;;;;;;;-141.50;100.00;63355.56;4943149;29;20055;-82
2021/10/14 10:48:38;;;;;;;3.22;2.22;;;;;;;-141.50;100.00;63355.56;4927507;29;20427;-81
2021/10/14 10:51:07;;;;;;;3.80;2.55;;;;;;;-141.50;100.00;63355.56;4924522;29;20105;-81
2021/10/14 10:53:45;;;;;;;3.95;2.95;;;;;;;-141.50;100.00;63355.56;4925276;29;20051;-80
2021/10/14 10:56:31;;;;;;;5.63;3.33;;;;;;;-141.50;100.00;63355.56;4925003;29;20090;-81
2021/10/14 10:58:58;;;;;;;6.72;4.05;;;;;;;-141.50;100.00;63355.56;4924705;29;20473;-81
2021/10/14 11:01:26;;;;;;;5.82;4.03;;;;;;;-141.50;100.00;63355.56;4925188;29;20047;-82
2021/10/14 11:04:03;;;;;;;6.13;4.05;;;;;;;-141.50;100.00;63355.56;4923930;29;20047;-80
2021/10/14 11:06:31;;;;;;;8.85;4.38;;;;;;;-141.50;100.00;63355.56;4941547;29;20147;-81